Time;durP1;ratioP1;P1;durP2;ratioP2;P2;SDS_P1;SDS_P2;PMS_P1;PMS_P2;Temp;Humidity;BMP_temperature;BMP_pressure;BME280_temperature;BME280_humidity;BME280_pressure;Samples;Min_cycle;Max_cycle;Signal;HPM_P1;HPM_P2
2022/04/14 00:01:39;;;;;;;6.25;2.78;;;;;;;4.32;71.09;97441.50;4987882;28;20064;-57
2022/04/14 00:04:06;;;;;;;5.80;3.05;;;;;;;4.46;70.54;97466.84;4987485;28;20050;-69
2022/04/14 00:06:33;;;;;;;7.28;2.90;;;;;;;4.42;71.63;97468.63;4988101;28;20157;-57
2022/04/14 00:09:00;;;;;;;9.15;2.58;;;;;;;3.90;71.00;97420.31;4987874;28;20513;-74
2022/04/14 00:11:27;;;;;;;13.48;4.20;;;;;;;3.13;70.48;97278.78;4987466;28;20054;-58
2022/04/14 00:13:54;;;;;;;15.48;5.53;;;;;;;3.55;70.76;97358.31;4987518;28;20538;-73
2022/04/14 00:16:21;;;;;;;12.23;5.25;;;;;;;3.62;70.01;97385.25;4987047;28;20119;-56
2022/04/14 00:18:47;;;;;;;10.27;3.90;;;;;;;4.02;69.87;97445.16;4986114;28;20061;-57
2022/04/14 00:21:14;;;;;;;5.97;2.72;;;;;;;4.21;69.95;97472.28;4986994;28;20073;-73
2022/04/14 00:23:41;;;;;;;5.35;2.17;;;;;;;3.67;69.75;97399.59;4986692;28;20089;-72
2022/04/14 00:26:07;;;;;;;6.97;2.72;;;;;;;4.03;70.06;97476.91;4987184;28;20181;-73
2022/04/14 00:28:34;;;;;;;3.92;2.40;;;;;;;4.01;69.74;97481.09;4987178;28;20069;-57
2022/04/14 00:31:03;;;;;;;5.07;2.45;;;;;;;3.91;70.60;97476.72;4986946;28;20073;-59
2022/04/14 00:33:31;;;;;;;4.60;2.75;;;;;;;4.03;70.56;97468.69;4985729;28;20102;-58
2022/04/14 00:35:58;;;;;;;5.07;2.75;;;;;;;3.40;69.91;97377.88;4986686;28;20141;-57
2022/04/14 00:38:25;;;;;;;6.80;2.70;;;;;;;3.88;70.07;97454.59;4987040;28;20061;-58
2022/04/14 00:40:52;;;;;;;7.50;3.25;;;;;;;4.07;69.50;97480.63;4987058;28;20410;-71
2022/04/14 00:43:22;;;;;;;3.85;2.15;;;;;;;4.05;69.18;97482.88;4990754;28;20045;-58
2022/04/14 00:45:52;;;;;;;9.52;3.47;;;;;;;3.71;69.53;97438.94;5006214;28;20054;-59
2022/04/14 00:48:19;;;;;;;9.68;3.53;;;;;;;3.90;70.61;97477.84;5004477;28;20058;-56
2022/04/14 00:50:45;;;;;;;8.07;3.30;;;;;;;3.92;71.39;97478.31;5006381;28;20060;-72
2022/04/14 00:53:12;;;;;;;10.23;3.67;;;;;;;3.90;71.25;97480.59;5005490;28;20069;-57
2022/04/14 00:55:39;;;;;;;25.55;7.40;;;;;;;3.22;70.54;97403.59;5005009;28;20046;-73
2022/04/14 00:58:06;;;;;;;10.80;4.45;;;;;;;3.28;71.91;97388.63;5006653;28;20050;-71
2022/04/14 01:00:32;;;;;;;4.32;2.60;;;;;;;3.35;71.67;97402.66;5004579;28;20065;-56
2022/04/14 01:03:00;;;;;;;6.00;2.92;;;;;;;3.73;71.74;97474.22;5004560;28;20065;-58
2022/04/14 01:05:27;;;;;;;5.78;2.85;;;;;;;3.58;73.68;97471.88;5004395;28;20406;-58
2022/04/14 01:07:56;;;;;;;5.68;2.28;;;;;;;3.52;73.60;97463.00;5005779;28;20054;-58
2022/04/14 01:10:25;;;;;;;7.40;3.83;;;;;;;3.05;73.66;97398.03;5004368;28;20587;-59
2022/04/14 01:12:53;;;;;;;7.95;3.30;;;;;;;3.36;73.70;97458.22;5004741;28;20057;-57
2022/04/14 01:15:19;;;;;;;6.53;2.53;;;;;;;3.29;74.29;97474.31;5003855;28;20061;-59
2022/04/14 01:17:46;;;;;;;7.22;3.15;;;;;;;3.25;73.73;97446.75;5005811;28;20057;-73
2022/04/14 01:20:13;;;;;;;9.10;2.83;;;;;;;3.50;73.17;97470.72;5006083;28;20057;-60
2022/04/14 01:23:08;;;;;;;6.40;2.50;;;;;;;3.61;73.37;97483.03;5004922;28;20186;-57
2022/04/14 01:25:35;;;;;;;11.18;4.05;;;;;;;3.64;72.20;97482.38;5003020;28;20061;-56
2022/04/14 01:28:03;;;;;;;9.43;3.80;;;;;;;3.49;73.32;97485.53;5004263;28;20057;-57
2022/04/14 01:30:30;;;;;;;11.02;4.07;;;;;;;3.56;72.67;97485.88;5005646;28;20054;-74
2022/04/14 01:32:57;;;;;;;9.80;3.55;;;;;;;3.52;72.37;97471.22;5005604;28;20061;-57
2022/04/14 01:35:24;;;;;;;7.28;3.47;;;;;;;3.59;72.52;97479.78;5005063;28;20061;-72
2022/04/14 01:37:51;;;;;;;10.23;4.78;;;;;;;3.56;72.48;97474.94;5005204;28;20050;-72
2022/04/14 01:40:18;;;;;;;15.20;6.03;;;;;;;2.52;72.67;97339.75;5005229;28;20060;-69
2022/04/14 01:42:45;;;;;;;12.93;3.80;;;;;;;3.42;73.63;97474.22;5005299;28;20057;-57
2022/04/14 01:45:12;;;;;;;14.35;5.88;;;;;;;3.39;73.93;97485.81;4986478;28;20050;-73
2022/04/14 01:47:43;;;;;;;13.85;5.47;;;;;;;3.40;73.97;97470.97;4984008;28;20414;-74
2022/04/14 01:50:12;;;;;;;10.77;4.97;;;;;;;3.21;73.27;97440.28;4984269;28;20061;-58
2022/04/14 01:52:40;;;;;;;10.45;4.90;;;;;;;3.50;72.57;97467.97;4985204;28;20073;-73
2022/04/14 01:55:08;;;;;;;12.18;4.28;;;;;;;3.56;71.86;97474.94;4985552;28;20113;-57
2022/04/14 01:57:34;;;;;;;8.63;4.68;;;;;;;3.18;71.69;97423.69;4985150;28;20058;-57
2022/04/14 02:00:04;;;;;;;12.40;4.50;;;;;;;3.38;71.01;97478.72;4983100;28;20073;-73
2022/04/14 02:02:31;;;;;;;7.88;4.43;;;;;;;3.38;71.05;97473.25;4983536;28;20069;-57
2022/04/14 02:04:58;;;;;;;8.65;3.92;;;;;;;3.39;71.28;97474.03;4984895;28;20122;-57
2022/04/14 02:07:24;;;;;;;9.73;5.00;;;;;;;3.22;70.94;97468.47;4985397;28;20057;-59
2022/04/14 02:09:51;;;;;;;9.07;4.57;;;;;;;3.24;71.96;97477.19;4985044;28;20050;-73
2022/04/14 02:12:17;;;;;;;11.77;5.30;;;;;;;3.24;71.55;97472.50;4985295;28;20054;-72
2022/04/14 02:14:44;;;;;;;8.38;4.93;;;;;;;2.84;72.48;97413.34;4985152;28;20054;-57
2022/04/14 02:17:11;;;;;;;9.05;4.30;;;;;;;2.92;73.59;97475.50;4984598;28;20058;-68
2022/04/14 02:19:37;;;;;;;9.85;4.07;;;;;;;2.95;74.15;97469.41;4985233;28;20046;-72
2022/04/14 02:22:04;;;;;;;91.13;26.50;;;;;;;3.12;74.28;97485.94;4985336;28;20054;-60
2022/04/14 02:24:31;;;;;;;19.38;7.45;;;;;;;3.10;73.57;97488.19;4985333;28;20524;-59
2022/04/14 02:26:58;;;;;;;15.55;4.68;;;;;;;3.05;73.66;97485.59;4985223;28;20057;-73
2022/04/14 02:29:24;;;;;;;21.10;5.93;;;;;;;3.11;74.74;97484.34;4983673;28;20054;-73
2022/04/14 02:31:57;;;;;;;47.08;11.82;;;;;;;1.98;73.20;97299.00;4984738;28;20058;-72
2022/04/14 02:34:26;;;;;;;29.10;6.80;;;;;;;3.23;72.70;97492.78;4984629;28;20046;-57
2022/04/14 02:36:54;;;;;;;17.38;5.90;;;;;;;3.01;73.43;97465.44;4984679;28;20050;-57
2022/04/14 02:39:21;;;;;;;17.02;7.43;;;;;;;3.11;72.84;97492.56;4984590;28;20054;-57
2022/04/14 02:41:47;;;;;;;13.75;5.97;;;;;;;2.52;74.25;97430.78;4983774;28;20053;-57
2022/04/14 02:44:14;;;;;;;12.43;4.35;;;;;;;2.95;74.31;97497.59;4995426;28;20128;-73
2022/04/14 02:46:41;;;;;;;9.88;4.00;;;;;;;2.80;75.35;97469.78;5002581;28;20405;-57
2022/04/14 02:49:07;;;;;;;16.90;6.25;;;;;;;3.02;74.64;97491.66;5002557;28;20567;-60
2022/04/14 02:51:34;;;;;;;16.17;5.82;;;;;;;3.08;74.10;97501.38;5004187;28;20057;-57
2022/04/14 02:54:01;;;;;;;15.85;6.03;;;;;;;2.98;73.32;97496.16;5004082;28;20072;-59
2022/04/14 02:56:27;;;;;;;29.90;12.75;;;;;;;2.94;72.30;97495.16;5002408;28;20068;-72
2022/04/14 02:58:54;;;;;;;15.05;5.95;;;;;;;2.78;73.19;97474.75;5004199;28;20049;-58
2022/04/14 03:01:21;;;;;;;13.60;4.50;;;;;;;2.77;74.33;97473.94;5002694;28;20428;-72
2022/04/14 03:03:47;;;;;;;7.97;3.28;;;;;;;2.89;74.01;97498.03;5004271;28;20085;-57
2022/04/14 03:06:14;;;;;;;13.05;5.13;;;;;;;2.73;74.01;97472.97;5003856;28;20049;-73
2022/04/14 03:08:41;;;;;;;16.67;8.82;;;;;;;2.80;74.48;97505.31;5003830;28;20054;-70
2022/04/14 03:11:08;;;;;;;18.45;8.77;;;;;;;2.56;75.47;97466.53;5001935;28;20521;-71
2022/04/14 03:13:35;;;;;;;18.83;8.50;;;;;;;2.26;75.98;97426.22;5003752;28;20065;-57
2022/04/14 03:16:02;;;;;;;22.70;8.68;;;;;;;2.88;74.87;97512.78;5003265;28;20065;-56
2022/04/14 03:18:28;;;;;;;45.72;15.13;;;;;;;-1.26;73.59;96844.13;5002896;28;20501;-58
2022/04/14 03:20:55;;;;;;;32.45;9.63;;;;;;;2.85;72.52;97519.72;5002217;28;20398;-68
2022/04/14 03:23:23;;;;;;;39.17;15.32;;;;;;;2.84;72.89;97517.28;5002105;28;20056;-58
2022/04/14 03:25:50;;;;;;;36.00;14.00;;;;;;;2.83;73.56;97512.91;5003960;28;20058;-57
2022/04/14 03:28:17;;;;;;;21.55;8.15;;;;;;;2.65;75.28;97497.47;5003743;28;20429;-60
2022/04/14 03:30:43;;;;;;;38.63;18.02;;;;;;;2.56;74.76;97488.41;5002084;28;20080;-57
2022/04/14 03:33:11;;;;;;;26.13;14.43;;;;;;;2.23;74.16;97465.09;5003701;28;20050;-67
2022/04/14 03:35:37;;;;;;;19.33;8.88;;;;;;;2.47;74.94;97539.44;5002054;28;20058;-56
2022/04/14 03:38:04;;;;;;;12.40;5.90;;;;;;;2.45;75.01;97508.88;5003930;28;20101;-57
2022/04/14 03:40:51;;;;;;;10.60;5.40;;;;;;;2.50;75.75;97522.41;5003445;28;20559;-56
2022/04/14 03:43:17;;;;;;;11.35;5.30;;;;;;;2.51;75.45;97524.06;4998898;28;20525;-59
2022/04/14 03:45:44;;;;;;;25.33;9.23;;;;;;;2.50;75.29;97525.16;4984186;28;20102;-58
2022/04/14 03:48:11;;;;;;;32.97;12.25;;;;;;;2.31;76.48;97508.91;4982320;28;20055;-59
2022/04/14 03:50:37;;;;;;;14.93;6.55;;;;;;;2.48;75.70;97527.41;4998231;28;20050;-70
2022/04/14 03:53:04;;;;;;;10.68;4.10;;;;;;;2.15;75.40;97449.44;4982413;28;20532;-57
2022/04/14 03:55:31;;;;;;;10.63;3.85;;;;;;;2.70;74.68;97530.19;4983906;28;20536;-71
2022/04/14 03:57:58;;;;;;;14.48;4.85;;;;;;;2.50;75.13;97489.63;4983822;28;20077;-67
2022/04/14 04:00:25;;;;;;;13.88;5.65;;;;;;;2.73;75.36;97521.38;4983835;28;20061;-60
2022/04/14 04:02:52;;;;;;;15.82;4.63;;;;;;;2.72;74.04;97506.88;4982431;28;20054;-57
2022/04/14 04:05:19;;;;;;;16.80;7.03;;;;;;;2.96;72.94;97525.75;4982135;28;20047;-57
2022/04/14 04:07:45;;;;;;;15.23;6.40;;;;;;;2.95;72.17;97535.06;4983562;28;20054;-60
2022/04/14 04:10:12;;;;;;;20.33;7.63;;;;;;;3.05;71.34;97529.38;4983458;28;20135;-70
2022/04/14 04:12:39;;;;;;;32.35;12.30;;;;;;;2.82;73.04;97524.97;4983494;28;20401;-71
2022/04/14 04:15:06;;;;;;;24.45;13.48;;;;;;;2.48;72.36;97437.19;4983160;28;20061;-59
2022/04/14 04:17:33;;;;;;;20.67;9.73;;;;;;;2.85;72.96;97486.06;4998573;28;20081;-68
2022/04/14 04:20:01;;;;;;;22.58;9.30;;;;;;;3.12;72.46;97529.72;4982150;28;20077;-71
2022/04/14 04:22:28;;;;;;;30.98;11.00;;;;;;;3.29;72.77;97543.53;4983922;28;20466;-71
2022/04/14 04:24:57;;;;;;;23.17;6.72;;;;;;;3.46;71.40;97548.34;4987243;28;20062;-72
2022/04/14 04:27:23;;;;;;;13.80;5.55;;;;;;;2.86;70.26;97433.78;4985681;28;20058;-70
2022/04/14 04:29:50;;;;;;;17.38;5.55;;;;;;;3.09;70.46;97460.03;4987132;28;20085;-57
2022/04/14 04:32:17;;;;;;;9.93;4.70;;;;;;;3.75;71.07;97546.75;4985484;28;20046;-58
2022/04/14 04:34:44;;;;;;;11.85;4.93;;;;;;;3.47;68.49;97476.84;4986797;28;20062;-71
2022/04/14 04:37:11;;;;;;;12.32;5.55;;;;;;;4.08;67.41;97548.03;4986934;28;20054;-71
2022/04/14 04:39:37;;;;;;;11.10;5.15;;;;;;;4.17;67.55;97540.63;4987112;28;20061;-72
2022/04/14 04:42:04;;;;;;;11.40;4.65;;;;;;;4.25;68.01;97548.09;4987440;28;20058;-71
2022/04/14 04:44:31;;;;;;;19.52;8.15;;;;;;;4.17;66.86;97535.16;4999105;28;20069;-59
2022/04/14 04:46:57;;;;;;;57.67;18.45;;;;;;;4.48;65.74;97535.09;5006240;28;20050;-59
2022/04/14 04:49:24;;;;;;;103.07;28.08;;;;;;;4.73;65.03;97558.25;5006296;28;20054;-58
2022/04/14 04:51:51;;;;;;;156.50;42.20;;;;;;;5.00;65.00;97555.19;5006166;28;20049;-60
2022/04/14 04:54:17;;;;;;;157.73;43.55;;;;;;;5.21;64.40;97553.41;5006091;28;20401;-58
2022/04/14 04:56:44;;;;;;;155.93;43.55;;;;;;;5.33;63.84;97556.31;5005957;28;20060;-58
2022/04/14 04:59:11;;;;;;;170.00;47.30;;;;;;;5.30;64.27;97535.81;5006559;28;20061;-57
2022/04/14 05:01:37;;;;;;;194.60;54.67;;;;;;;5.70;64.61;97561.13;5006111;28;20054;-70
2022/04/14 05:04:04;;;;;;;183.52;50.88;;;;;;;5.43;62.11;97492.81;5004690;28;20112;-70
2022/04/14 05:06:31;;;;;;;171.75;46.92;;;;;;;6.05;61.01;97566.22;5005468;28;20100;-58
2022/04/14 05:08:57;;;;;;;147.50;44.00;;;;;;;6.06;60.12;97567.06;5005430;28;20049;-57
2022/04/14 05:11:24;;;;;;;152.93;44.92;;;;;;;5.91;59.76;97512.63;5005942;28;20061;-70
2022/04/14 05:13:51;;;;;;;151.45;43.45;;;;;;;6.36;60.20;97567.91;5005736;28;20533;-71
2022/04/14 05:16:17;;;;;;;132.52;40.67;;;;;;;6.57;59.82;97563.28;5005249;28;20064;-70
2022/04/14 05:18:44;;;;;;;96.97;31.48;;;;;;;6.64;58.88;97553.34;5005767;28;20528;-70
2022/04/14 05:21:11;;;;;;;98.38;33.78;;;;;;;6.68;57.94;97531.50;5004134;28;20062;-70
2022/04/14 05:23:37;;;;;;;47.92;19.15;;;;;;;6.97;60.55;97579.06;5004094;28;20504;-71
2022/04/14 05:26:04;;;;;;;31.70;14.02;;;;;;;7.18;59.35;97582.66;5005446;28;20436;-58
2022/04/14 05:28:31;;;;;;;27.85;12.10;;;;;;;7.13;59.15;97560.00;5003950;28;20058;-72
2022/04/14 05:30:57;;;;;;;30.48;12.15;;;;;;;7.42;58.70;97579.22;5003795;28;20053;-59
2022/04/14 05:33:24;;;;;;;23.20;10.40;;;;;;;6.95;58.09;97504.25;5005308;28;20611;-69
2022/04/14 05:35:51;;;;;;;26.73;12.18;;;;;;;7.49;57.94;97569.25;5003811;28;20455;-70
2022/04/14 05:38:17;;;;;;;32.83;11.18;;;;;;;7.37;57.41;97513.28;5004988;28;20049;-56
2022/04/14 05:40:45;;;;;;;25.27;12.15;;;;;;;8.11;55.42;97579.41;5005040;28;20053;-73
2022/04/14 05:43:19;;;;;;;23.15;11.52;;;;;;;7.92;55.97;97543.25;5003796;28;20046;-59
2022/04/14 05:45:49;;;;;;;21.55;10.70;;;;;;;7.91;54.38;97514.84;4985521;28;20054;-59
2022/04/14 05:48:17;;;;;;;20.05;8.07;;;;;;;8.37;53.89;97544.03;4985303;28;20510;-57
2022/04/14 05:50:46;;;;;;;20.85;7.75;;;;;;;8.79;53.71;97589.59;4983877;28;20062;-57
2022/04/14 05:53:13;;;;;;;21.75;8.27;;;;;;;8.57;51.12;97508.03;4983264;28;20058;-70
2022/04/14 05:55:47;;;;;;;21.92;8.18;;;;;;;8.43;51.35;97481.94;4999167;28;20053;-56
2022/04/14 05:58:13;;;;;;;16.95;6.45;;;;;;;9.18;51.67;97569.56;4992257;28;20052;-66
2022/04/14 06:00:40;;;;;;;16.92;7.38;;;;;;;9.30;51.62;97555.69;5015289;28;20049;-57
2022/04/14 06:03:07;;;;;;;20.60;8.02;;;;;;;9.69;50.28;97567.91;5003230;28;20049;-69
2022/04/14 06:05:35;;;;;;;20.73;8.15;;;;;;;9.89;50.41;97564.94;4995357;28;20125;-64
2022/04/14 06:08:01;;;;;;;15.43;6.38;;;;;;;9.75;50.03;97534.13;4993509;28;20057;-56
2022/04/14 06:10:28;;;;;;;14.68;5.68;;;;;;;9.92;48.09;97533.81;4998708;28;20061;-56
2022/04/14 06:12:55;;;;;;;7.07;4.20;;;;;;;9.95;46.05;97499.88;5004164;28;20054;-55
2022/04/14 06:15:23;;;;;;;11.07;5.15;;;;;;;10.54;45.73;97572.63;4990060;28;20057;-64
2022/04/14 06:17:50;;;;;;;14.57;6.57;;;;;;;10.64;45.59;97563.81;5003247;28;20061;-64
2022/04/14 06:20:17;;;;;;;11.85;6.82;;;;;;;10.84;45.19;97558.34;4999169;28;20464;-58
2022/04/14 06:22:44;;;;;;;9.77;4.93;;;;;;;10.45;45.23;97557.38;5004145;28;20068;-66
2022/04/14 06:25:13;;;;;;;9.32;5.35;;;;;;;9.29;46.65;97465.66;5002269;28;20050;-65
2022/04/14 06:27:40;;;;;;;8.63;4.95;;;;;;;9.76;46.98;97499.75;5004310;28;20108;-71
2022/04/14 06:30:09;;;;;;;16.13;5.70;;;;;;;10.35;47.72;97557.91;5003601;28;20611;-56
2022/04/14 06:32:36;;;;;;;15.13;5.18;;;;;;;9.94;45.99;97489.94;5004222;28;20057;-68
2022/04/14 06:35:05;;;;;;;6.47;3.67;;;;;;;10.38;44.41;97558.00;4997738;28;20721;-72
2022/04/14 06:37:33;;;;;;;6.35;3.95;;;;;;;10.63;44.80;97504.03;4984721;28;20050;-59
2022/04/14 06:39:59;;;;;;;11.45;4.43;;;;;;;11.37;43.54;97563.13;4998507;28;20054;-64
2022/04/14 06:42:47;;;;;;;6.28;3.40;;;;;;;11.53;40.78;97513.94;4993160;28;20497;-63
2022/04/14 06:45:14;;;;;;;7.70;3.90;;;;;;;12.05;40.74;97547.56;4989728;28;20046;-56
2022/04/14 06:47:40;;;;;;;7.43;4.45;;;;;;;12.10;40.83;97533.38;4995232;28;20046;-58
2022/04/14 06:50:08;;;;;;;10.07;5.00;;;;;;;11.99;40.75;97477.66;4992502;28;20050;-66
2022/04/14 06:52:39;;;;;;;5.97;3.95;;;;;;;12.69;41.07;97547.53;4988774;28;20050;-59
2022/04/14 06:55:07;;;;;;;12.00;4.80;;;;;;;12.71;39.89;97550.72;4989178;28;20057;-68
2022/04/14 06:57:34;;;;;;;9.50;4.88;;;;;;;12.19;40.63;97425.59;4984012;28;20483;-59
2022/04/14 07:00:02;;;;;;;10.68;5.32;;;;;;;13.22;40.14;97551.16;4995287;28;20066;-74
2022/04/14 07:02:31;;;;;;;8.18;4.78;;;;;;;12.83;40.04;97508.84;5003929;28;20050;-61
2022/04/14 07:05:01;;;;;;;16.33;5.53;;;;;;;12.69;39.26;97441.91;4971284;28;20129;-68
2022/04/14 07:07:33;;;;;;;7.00;5.07;;;;;;;13.60;39.60;97574.00;4968812;28;20046;-69
2022/04/14 07:09:59;;;;;;;8.80;5.15;;;;;;;12.53;39.04;97346.78;4969063;28;20468;-62
2022/04/14 07:12:26;;;;;;;7.32;4.70;;;;;;;13.77;38.76;97521.72;4991575;28;20049;-59
2022/04/14 07:14:53;;;;;;;5.88;4.47;;;;;;;13.99;39.04;97557.00;4996654;28;20047;-60
2022/04/14 07:17:22;;;;;;;8.65;4.30;;;;;;;14.08;37.53;97538.00;5002057;28;20046;-69
2022/04/14 07:19:49;;;;;;;6.55;4.30;;;;;;;14.11;37.82;97523.28;5000606;28;20468;-69
2022/04/14 07:22:18;;;;;;;6.38;4.38;;;;;;;14.44;38.50;97534.41;5003676;28;20476;-61
2022/04/14 07:24:49;;;;;;;9.10;4.35;;;;;;;14.50;37.06;97544.84;5000714;28;20072;-59
2022/04/14 07:27:18;;;;;;;9.93;4.47;;;;;;;14.48;36.82;97546.41;4999127;28;20060;-57
2022/04/14 07:29:48;;;;;;;7.30;4.47;;;;;;;14.45;36.61;97541.59;4987547;28;20062;-66
2022/04/14 07:32:15;;;;;;;8.88;4.78;;;;;;;14.82;36.55;97545.13;4992383;28;20580;-58
2022/04/14 07:34:42;;;;;;;4.88;3.22;;;;;;;14.11;32.00;97548.38;4983997;28;20046;-56
2022/04/14 07:37:09;;;;;;;6.28;3.08;;;;;;;14.33;33.11;97544.66;5003270;28;20050;-64
2022/04/14 07:39:36;;;;;;;5.05;3.75;;;;;;;14.62;34.92;97535.41;4995762;28;20072;-69
2022/04/14 07:42:08;;;;;;;6.85;4.07;;;;;;;14.94;34.41;97545.63;4987190;28;20058;-58
2022/04/14 07:44:35;;;;;;;7.70;4.10;;;;;;;14.82;34.62;97495.72;5003409;28;20069;-56
2022/04/14 07:47:01;;;;;;;5.65;3.70;;;;;;;15.44;33.87;97544.03;4993954;28;20061;-58
2022/04/14 07:49:28;;;;;;;5.65;3.95;;;;;;;15.12;34.00;97515.88;4990147;28;20058;-62
2022/04/14 07:51:55;;;;;;;6.00;3.58;;;;;;;15.41;32.43;97547.59;4998902;28;20058;-62
2022/04/14 07:54:22;;;;;;;5.80;3.67;;;;;;;14.90;33.15;97493.78;4989854;28;20506;-66
2022/04/14 07:56:49;;;;;;;9.95;4.75;;;;;;;15.39;32.95;97536.03;4999056;28;20060;-60
2022/04/14 07:59:15;;;;;;;6.05;4.38;;;;;;;15.30;33.33;97471.31;5003859;28;20061;-59
2022/04/14 08:01:42;;;;;;;6.10;4.13;;;;;;;15.93;32.96;97544.25;4995639;28;20065;-63
2022/04/14 08:04:09;;;;;;;6.07;4.30;;;;;;;16.06;32.41;97542.72;5004914;28;20050;-57
2022/04/14 08:06:36;;;;;;;5.60;3.72;;;;;;;16.16;31.91;97536.38;5004378;28;20069;-60
2022/04/14 08:09:04;;;;;;;4.10;3.60;;;;;;;16.15;31.76;97540.38;4999895;28;20046;-57
2022/04/14 08:11:31;;;;;;;6.93;3.70;;;;;;;16.05;31.49;97502.00;4997543;28;20086;-61
2022/04/14 08:13:58;;;;;;;6.97;3.70;;;;;;;16.16;31.88;97525.19;4994184;28;20431;-60
2022/04/14 08:16:24;;;;;;;6.05;4.43;;;;;;;16.39;32.48;97528.44;4994913;28;20057;-56
2022/04/14 08:18:51;;;;;;;5.57;3.85;;;;;;;16.64;32.25;97528.50;4996003;28;20185;-64
2022/04/14 08:21:19;;;;;;;8.35;3.88;;;;;;;16.84;31.88;97521.31;5004996;28;20487;-60
2022/04/14 08:23:46;;;;;;;4.72;3.90;;;;;;;17.02;30.92;97521.31;4998310;28;20053;-57
2022/04/14 08:26:12;;;;;;;5.05;3.75;;;;;;;17.01;30.78;97536.53;4998494;28;20054;-60
2022/04/14 08:28:44;;;;;;;5.90;4.30;;;;;;;16.54;30.84;97487.34;4986879;28;20050;-62
2022/04/14 08:31:12;;;;;;;5.75;3.78;;;;;;;16.15;31.11;97470.50;4998743;28;20158;-58
2022/04/14 08:33:40;;;;;;;6.55;3.65;;;;;;;16.08;32.43;97520.75;5002876;28;20059;-57
2022/04/14 08:36:12;;;;;;;5.55;3.85;;;;;;;16.10;31.27;97484.84;5001788;28;20077;-63
2022/04/14 08:38:41;;;;;;;4.53;4.00;;;;;;;16.06;31.34;97425.34;4992274;28;20054;-57
2022/04/14 08:41:08;;;;;;;5.78;3.75;;;;;;;16.69;30.92;97521.72;4990768;28;20050;-58
2022/04/14 08:43:48;;;;;;;7.97;5.00;;;;;;;16.63;31.32;97514.94;4998486;28;20053;-58
2022/04/14 08:46:17;;;;;;;10.90;5.78;;;;;;;17.12;30.51;97515.69;4996197;28;20081;-61
2022/04/14 08:48:50;;;;;;;17.45;5.85;;;;;;;17.33;30.38;97503.66;4993782;28;20054;-61
2022/04/14 08:51:19;;;;;;;6.25;4.70;;;;;;;16.76;30.62;97374.22;4997405;28;20050;-59
2022/04/14 08:53:48;;;;;;;4.53;3.45;;;;;;;17.53;29.79;97485.25;5004509;28;20998;-63
2022/04/14 08:56:21;;;;;;;4.55;4.15;;;;;;;17.52;29.97;97455.63;5001224;28;20147;-59
2022/04/14 08:58:48;;;;;;;4.22;3.88;;;;;;;17.68;29.09;97470.00;4992426;28;20058;-61
2022/04/14 09:01:15;;;;;;;7.22;4.63;;;;;;;17.98;29.21;97490.69;4998695;28;20212;-57
2022/04/14 09:03:57;;;;;;;5.93;3.72;;;;;;;17.85;29.03;97467.13;5004296;28;20529;-59
2022/04/14 09:06:28;;;;;;;8.55;4.07;;;;;;;17.86;28.26;97473.53;4997860;28;20054;-61
2022/04/14 09:08:59;;;;;;;4.63;3.78;;;;;;;17.38;29.20;97427.66;5001000;28;20049;-67
2022/04/14 09:11:27;;;;;;;5.50;4.40;;;;;;;17.80;29.09;97498.34;4998140;28;20058;-66
2022/04/14 09:13:55;;;;;;;4.75;3.97;;;;;;;18.01;29.78;97480.66;4996264;28;20047;-64
2022/04/14 09:16:22;;;;;;;5.13;3.75;;;;;;;18.19;29.54;97480.56;5002810;28;20057;-61
2022/04/14 09:18:49;;;;;;;6.32;4.00;;;;;;;17.98;27.82;97439.41;4992985;28;20107;-62
2022/04/14 09:21:16;;;;;;;7.88;4.35;;;;;;;18.28;28.49;97476.09;4996649;28;20057;-65
2022/04/14 09:23:53;;;;;;;4.38;3.97;;;;;;;18.29;28.79;97424.38;4998168;28;20476;-57
2022/04/14 09:26:24;;;;;;;5.35;3.58;;;;;;;18.48;27.42;97418.25;5005282;28;20046;-59
2022/04/14 09:29:10;;;;;;;4.03;3.63;;;;;;;18.69;27.00;97457.38;4992291;28;20181;-60
2022/04/14 09:31:51;;;;;;;4.32;3.92;;;;;;;18.00;27.26;97408.97;5003229;28;20401;-59
2022/04/14 09:34:48;;;;;;;4.30;3.90;;;;;;;18.74;27.11;97462.56;5003289;28;20053;-60
2022/04/14 09:37:15;;;;;;;6.82;4.05;;;;;;;18.31;26.37;97430.38;5005295;28;20574;-61
2022/04/14 09:40:10;;;;;;;4.57;3.65;;;;;;;18.28;26.03;97394.75;5004941;28;20065;-60
2022/04/14 09:42:40;;;;;;;5.75;4.47;;;;;;;18.84;26.60;97447.63;5006509;28;20065;-58
2022/04/14 09:45:23;;;;;;;7.03;4.15;;;;;;;17.71;26.73;97457.97;4998807;28;20046;-57
2022/04/14 09:48:17;;;;;;;4.50;4.10;;;;;;;17.45;27.40;97405.25;4987582;28;20075;-61
2022/04/14 09:50:47;;;;;;;4.93;4.25;;;;;;;18.12;26.36;97464.56;5004542;28;20555;-61
2022/04/14 09:53:16;;;;;;;5.65;4.38;;;;;;;18.41;25.99;97443.59;5005155;28;20049;-57
2022/04/14 09:55:55;;;;;;;5.30;4.80;;;;;;;18.53;26.23;97437.47;5004831;28;20056;-62
2022/04/14 09:58:23;;;;;;;6.28;4.28;;;;;;;18.72;26.43;97428.50;4999653;28;20141;-64
2022/04/14 10:00:52;;;;;;;4.43;4.03;;;;;;;19.03;25.90;97432.22;4996881;28;20134;-63
2022/04/14 10:03:23;;;;;;;6.40;4.25;;;;;;;18.21;27.04;97428.44;4984865;28;20085;-61
2022/04/14 10:05:53;;;;;;;6.68;4.15;;;;;;;18.43;26.84;97371.00;4999534;28;20209;-58
2022/04/14 10:08:22;;;;;;;6.10;4.00;;;;;;;18.09;26.57;97311.19;4983083;28;20056;-59
2022/04/14 10:11:06;;;;;;;4.35;3.70;;;;;;;18.78;26.96;97376.31;4985283;28;20116;-61
2022/04/14 10:13:37;;;;;;;;;;;;;;;19.50;26.87;97429.31;4985957;28;20047;-62
2022/04/14 10:16:05;;;;;;;6.10;3.95;;;;;;;19.69;25.92;97436.31;4983079;28;20439;-60
2022/04/14 10:18:32;;;;;;;4.88;4.43;;;;;;;19.58;26.41;97425.19;4985177;28;20244;-59
2022/04/14 10:20:59;;;;;;;5.13;4.30;;;;;;;19.81;25.56;97420.88;4982520;28;20046;-60
2022/04/14 10:23:27;;;;;;;5.38;3.97;;;;;;;19.72;26.01;97424.22;4984567;28;20055;-59
2022/04/14 10:25:55;;;;;;;4.70;4.25;;;;;;;19.74;26.05;97415.38;4984004;28;20050;-60
2022/04/14 10:28:26;;;;;;;4.40;3.72;;;;;;;19.08;26.68;97390.44;4999991;28;20066;-61
2022/04/14 10:30:55;;;;;;;4.43;4.03;;;;;;;19.29;26.05;97362.13;4995320;28;20061;-61
2022/04/14 10:33:23;;;;;;;5.68;4.03;;;;;;;19.43;26.04;97367.59;5003861;28;20061;-58
2022/04/14 10:35:51;;;;;;;6.13;4.75;;;;;;;19.76;26.33;97416.53;5004307;28;20061;-61
2022/04/14 10:38:35;;;;;;;5.35;4.15;;;;;;;19.02;26.10;97364.03;5003758;28;20049;-58
2022/04/14 10:41:18;;;;;;;5.85;4.40;;;;;;;19.15;26.98;97353.84;5002715;28;20060;-57
2022/04/14 10:43:46;;;;;;;4.38;3.97;;;;;;;20.05;26.59;97414.13;5003177;28;20050;-61
2022/04/14 10:46:17;;;;;;;6.95;4.40;;;;;;;20.42;26.61;97428.09;4990208;28;20092;-57
2022/04/14 10:48:45;;;;;;;5.10;4.35;;;;;;;20.56;25.69;97406.16;4987406;28;20050;-63
2022/04/14 10:51:27;;;;;;;4.85;4.35;;;;;;;20.57;25.59;97413.38;4978755;28;20077;-61
2022/04/14 10:54:06;;;;;;;4.65;3.85;;;;;;;20.88;26.32;97405.63;4959717;28;20780;-60
2022/04/14 10:56:41;;;;;;;7.50;4.40;;;;;;;21.06;26.07;97411.75;4959368;28;20501;-66
2022/04/14 10:59:16;;;;;;;6.72;4.55;;;;;;;21.20;25.24;97402.25;4946870;28;20539;-57
2022/04/14 11:01:46;;;;;;;4.90;4.50;;;;;;;20.94;24.84;97403.88;4956756;28;20057;-62
2022/04/14 11:04:29;;;;;;;4.93;4.15;;;;;;;20.54;25.38;97374.00;4959707;28;20522;-59
2022/04/14 11:07:01;;;;;;;6.95;4.72;;;;;;;20.79;25.82;97419.44;4956950;28;20058;-60
2022/04/14 11:09:42;;;;;;;5.95;4.68;;;;;;;20.69;25.36;97411.97;4959530;28;20061;-59
2022/04/14 11:12:19;;;;;;;6.07;4.95;;;;;;;20.69;25.27;97404.31;4955291;28;20217;-64
2022/04/14 11:14:50;;;;;;;4.82;4.15;;;;;;;20.71;25.51;97409.50;4993037;28;20058;-61
2022/04/14 11:17:48;;;;;;;4.75;4.22;;;;;;;20.64;25.58;97395.56;4991485;28;20053;-60
2022/04/14 11:20:30;;;;;;;7.32;4.03;;;;;;;20.68;25.91;97396.28;5016937;28;20140;-59
2022/04/14 11:23:11;;;;;;;4.90;4.40;;;;;;;20.69;26.07;97392.25;5002725;28;20547;-65
2022/04/14 11:25:41;;;;;;;5.05;4.13;;;;;;;20.89;25.84;97396.72;5003457;28;20050;-58
2022/04/14 11:28:27;;;;;;;5.28;4.78;;;;;;;21.04;26.16;97391.66;5009611;28;20054;-62
2022/04/14 11:31:04;;;;;;;5.57;4.78;;;;;;;21.12;25.81;97381.06;5003575;28;20077;-61
2022/04/14 11:33:36;;;;;;;5.45;4.38;;;;;;;20.93;26.41;97379.75;4995526;28;20148;-60
2022/04/14 11:36:19;;;;;;;6.00;4.47;;;;;;;20.78;26.10;97372.78;5001636;28;20086;-63
2022/04/14 11:38:59;;;;;;;5.90;4.93;;;;;;;20.89;26.13;97370.56;5006944;28;20492;-61
2022/04/14 11:41:33;;;;;;;6.60;4.75;;;;;;;20.72;25.83;97380.16;5022148;28;20061;-58
2022/04/14 11:44:02;;;;;;;4.40;4.00;;;;;;;20.23;25.84;97296.56;5002651;28;20133;-62